• Join FlightAware (Why Join?)
  • Login
  • US Flag 
10:11PM EST


 

Airport Tracker/Info


-or-


 

Live Flight TrackerFlight Track Log ✈ N421KS ✈ 04-Nov-2013 ✈ KHPN - KPWM

Flight Track Log - Related Links

Times and Time Zones

All times are in EST time to prevent confusion due to time zone crossing. See the N421KS flight status page for this flight to view local times or setup timezone preferences in your user account.

Time Position Orientation Groundspeed Altitude Reporting Facility
EST Latitude Longitude Course Direction KTS MPH feet Rate Location/Type
06:08PM 41.1000 -73.7333 270° West 139 160 1,600  Level New York TRACON
06:09PM 41.1000 -73.8000 270° West 140 161 2,800 1,080 Climbing New York TRACON
06:10PM 41.1167 -73.8500 294° West 139 160 3,900 960 Climbing New York TRACON
06:11PM 41.1500 -73.8667 339° North 140 161 4,800 900 Climbing New York TRACON
06:12PM 41.1833 -73.8500 21° North 145 167 5,700 960 Climbing New York TRACON
06:13PM 41.2000 -73.8000 66° East 142 163 6,800 840 Climbing New York TRACON
06:14PM 41.2167 -73.7500 66° East 152 175 7,500 720 Climbing New York TRACON
06:15PM 41.2333 -73.7000 66° East 154 177 8,300 720 Climbing New York TRACON
06:16PM 41.2667 -73.6500 48° Northeast 159 183 9,000 420 Climbing New York TRACON
06:17PM 41.2833 -73.6000 66° East 174 200 9,100  Climbing New York TRACON
06:18PM 41.3000 -73.5333 72° East 188 216 9,100  Level New York TRACON
06:19PM 41.3167 -73.4667 72° East 190 219 9,100  Level New York TRACON
06:20PM 41.3333 -73.4000 72° East 192 221 9,100 -60 Level New York TRACON
06:22PM 41.3800 -73.2819 62° Northeast 193 222 9,000  Descending Boston Center
06:23PM 41.4000 -73.2164 68° East 192 221 9,100  Climbing Boston Center
06:24PM 41.4219 -73.1467 67° East 193 222 9,100 -60 Level Boston Center
06:25PM 41.4375 -73.0981 67° East 192 221 9,000 -120 Descending Boston Center
06:25PM 41.4439 -73.0822 62° Northeast 193 222 9,000 60 Level Boston Center
06:26PM 41.4594 -73.0342 67° East 192 221 9,100 60 Climbing Boston Center
06:26PM 41.4658 -73.0172 63° Northeast 192 221 9,100 -120 Level Boston Center
06:27PM 41.4828 -72.9622 68° East 193 222 9,000 -120 Descending Boston Center
06:27PM 41.4881 -72.9531 52° Northeast 192 221 9,000 60 Level Boston Center
06:28PM 41.5089 -72.8969 64° Northeast 190 219 9,100 60 Climbing Boston Center
06:28PM 41.5169 -72.8889 37° Northeast 191 220 9,100  Level Boston Center
06:29PM 41.5486 -72.8508 42° Northeast 186 214 9,100  Level Boston Center
06:29PM 41.5569 -72.8450 28° Northeast 185 213 9,100 -120 Level Boston Center
06:30PM 41.5925 -72.8147 32° Northeast 186 214 9,000  Descending Boston Center
06:30PM 41.6000 -72.8089 30° Northeast 185 213 9,100  Climbing Boston Center
06:31PM 41.6381 -72.7822 28° Northeast 185 213 9,000 -120 Descending Boston Center
06:31PM 41.6492 -72.7747 27° Northeast 183 211 9,000  Level Boston Center
06:32PM 41.6764 -72.7528 31° Northeast 183 211 9,000  Level Boston Center
06:32PM 41.6950 -72.7431 21° North 185 213 9,000 60 Level Boston Center
06:33PM 41.7258 -72.7217 27° Northeast 186 214 9,100  Climbing Boston Center
06:33PM 41.7400 -72.7111 29° Northeast 185 213 9,000 -120 Descending Boston Center
06:34PM 41.7697 -72.6856 33° Northeast 187 215 9,000  Level Boston Center
06:34PM 41.7869 -72.6714 32° Northeast 185 213 9,000 60 Level Boston Center
06:35PM 41.8122 -72.6458 37° Northeast 187 215 9,100 60 Climbing Boston Center
06:35PM 41.8303 -72.6336 27° Northeast 186 214 9,100  Level Boston Center
06:36PM 41.8561 -72.6097 35° Northeast 187 215 9,100  Level Boston Center
06:36PM 41.8733 -72.5972 28° Northeast 185 213 9,100 -120 Level Boston Center
06:37PM 41.9039 -72.5747 29° Northeast 186 214 9,000 -120 Descending Boston Center
06:37PM 41.9208 -72.5594 34° Northeast 186 214 9,000  Level Boston Center
06:38PM 41.9511 -72.5339 32° Northeast 186 214 9,000  Level Boston Center
06:38PM 41.9644 -72.5236 30° Northeast 185 213 9,000  Level Boston Center
06:39PM 41.9969 -72.4981 30° Northeast 186 214 9,000  Level Boston Center
06:39PM 42.0086 -72.4897 28° Northeast 184 212 9,000  Level Boston Center
06:40PM 42.0361 -72.4631 36° Northeast 186 214 9,000  Level Boston Center
06:40PM 42.0542 -72.4483 31° Northeast 184 212 9,000  Level Boston Center
06:41PM 42.0781 -72.4258 35° Northeast 183 211 9,000 60 Level Boston Center
06:41PM 42.0953 -72.4089 36° Northeast 182 209 9,100 60 Climbing Boston Center
06:42PM 42.1342 -72.3642 40° Northeast 184 212 9,100  Level Boston Center
06:43PM 42.1769 -72.3175 39° Northeast 182 209 9,100 -60 Level Boston Center
06:44PM 42.2194 -72.2811 32° Northeast 182 209 9,000  Descending Boston Center
06:45PM 42.2622 -72.2442 33° Northeast 182 209 9,100  Climbing Boston Center
06:46PM 42.3078 -72.2022 34° Northeast 184 212 9,000  Descending Boston Center
06:47PM 42.3511 -72.1636 33° Northeast 187 215 9,100  Climbing Boston Center
06:48PM 42.3947 -72.1264 32° Northeast 185 213 9,100  Level Boston Center
06:49PM 42.4375 -72.0894 33° Northeast 184 212 9,100  Level Boston Center
06:50PM 42.4844 -72.0500 32° Northeast 185 213 9,100  Level Boston Center
06:51PM 42.5264 -72.0108 35° Northeast 187 215 9,100  Level Boston Center
06:52PM 42.5686 -71.9711 35° Northeast 184 212 9,100 -60 Level Boston Center
06:53PM 42.6117 -71.9339 32° Northeast 185 213 9,000 -60 Descending Boston Center
06:54PM 42.6414 -71.8683 58° Northeast 188 216 9,000  Level Boston Center
06:55PM 42.6672 -71.8061 61° Northeast 188 216 9,000  Level Boston Center
06:56PM 42.7000 -71.7483 52° Northeast 194 223 9,000  Level Boston Center
06:58PM 42.7325 -71.6933 51° Northeast 190 219 9,000  Level Boston Center
06:59PM 42.7689 -71.6344 50° Northeast 191 220 9,000  Level Boston Center
07:00PM 42.8028 -71.5803 50° Northeast 191 220 9,000  Level Boston Center
07:01PM 42.8358 -71.5250 51° Northeast 190 219 9,000  Level Boston Center
07:02PM 42.8711 -71.4669 50° Northeast 187 215 9,000  Level Boston Center
07:03PM 42.9053 -71.4119 50° Northeast 189 217 9,000  Level Boston Center
07:04PM 42.9403 -71.3603 47° Northeast 187 215 9,000  Level Boston Center
07:05PM 42.9761 -71.3075 47° Northeast 186 214 9,000  Level Boston Center
07:06PM 43.0117 -71.2542 48° Northeast 188 216 9,000  Level Boston Center
07:07PM 43.0497 -71.1986 47° Northeast 188 216 9,000  Level Boston Center
07:08PM 43.0811 -71.1428 52° Northeast 186 214 9,000  Level Boston Center
07:09PM 43.1333 -71.0833 40° Northeast 186 214 9,000  Level KA90
07:10PM 43.1667 -71.0333 48° Northeast 187 215 9,000  Level KA90
07:11PM 43.2000 -70.9833 48° Northeast 186 214 9,000 -300 Level KA90
07:13PM 43.2722 -70.8872 44° Northeast 203 234 8,200 -540 Descending Boston Center
07:14PM 43.3117 -70.8278 48° Northeast 196 226 7,500 -900 Descending Boston Center
07:15PM 43.3494 -70.7697 48° Northeast 204 235 6,400 -1,020 Descending Boston Center
07:16PM 43.3853 -70.7097 51° Northeast 202 232 5,400 -1,020 Descending Boston Center
07:17PM 43.4267 -70.6558 43° Northeast 199 229 4,400 -1,080 Descending Boston Center
07:18PM 43.4681 -70.6133 37° Northeast 187 215 3,300 -960 Descending Boston Center
07:19PM 43.5103 -70.5667 39° Northeast 182 209 2,500 -660 Descending Boston Center
07:20PM 43.5425 -70.5183 47° Northeast 175 201 2,000 -420 Descending Boston Center
07:21PM 43.5733 -70.4731 47° Northeast 165 190 1,700 -300 Descending Boston Center
07:22PM 43.6011 -70.4303 48° Northeast 153 176 1,500 -180 Descending Boston Center
07:23PM 43.6358 -70.4003 32° Northeast 137 158 1,400 -480 Descending Boston Center
07:24PM 43.6497 -70.3575 66° East 127 146 600 -600 Descending Boston Center
07:25PM 43.6458 -70.3186 98° East 120 138 200 -420 Descending Boston Center